Estación Meteorológica Peña el Pijo (Robertgarden) [ 05/30/17 13:02:51 CEST ]

Fecha Hora Presion(HPa) Temp (°C) Humedad % Rocio (°C) Viento ( m/s) Direccion Lluvia 1Hora(mm) Lluvia 24H(mm) LLuvia Total(mm)
2017-Mar-31 01:01:34 1014.200 8.9 66 2.9         1357.16
2017-Mar-31 02:01:43 1014.200 7.8 69 2.5         1357.16
2017-Mar-31 03:01:51 1013.600 6.4 71 1.5         1357.16
2017-Mar-31 04:01:45 1013.400 5.2 74 0.9         1357.16
2017-Mar-31 05:01:43 1012.900 5.9 76 2.0         1357.16
2017-Mar-31 06:01:53 1012.900 5.9 77 2.2         1357.16
2017-Mar-31 07:01:25 1013.000 5.3 78 1.7         1357.16
2017-Mar-31 08:01:36 1012.900 5.1 79 1.7         1357.16
2017-Mar-31 09:01:49 1013.400 6.4 80 3.2         1357.16
2017-Mar-31 10:01:32 1013.100 9.0 79 5.5         1357.16
2017-Mar-31 11:01:44 1013.600 12.9 67 6.9         1357.16
2017-Mar-31 12:01:28 1013.300 19.1 43 6.2         1357.16
2017-Mar-31 13:01:56 1012.900 20.7 32 3.3         1357.16
2017-Mar-31 14:01:49 1011.900 22.9 26 2.2         1357.16
2017-Mar-31 15:01:40 1011.500 22.9 25 1.6         1357.16
2017-Mar-31 16:01:56 1011.300 22.7 27 2.6         1357.16
2017-Mar-31 17:01:44 1011.100 20.7 31 2.9         1357.16
2017-Mar-31 18:01:50 1010.400 20.4 34 3.9         1357.16
2017-Mar-31 19:01:46 1010.300 18.9 35 3.0 3.8 WNW     1357.16
2017-Mar-31 20:01:38 1010.400 15.9 40 2.3         1357.16
2017-Mar-31 21:01:57 1010.000 14.1 44 2.0         1357.16
2017-Mar-31 22:01:46 1010.400 13.2 46 1.8         1357.16
2017-Mar-31 23:01:52 1010.400 12.6 50 2.4 2.5 WNW     1357.16

Temperatura Máxima:22°    Temperatura Mínima:
Presión Máxima:1014.200 Hpa    Presión Mínima:1010.000 Hpa


Volver